createdAt,value
2019-02-16T00:01:51.105Z,99.90
2019-02-16T00:04:22.222Z,99.90
2019-02-16T00:06:53.803Z,99.90
2019-02-16T00:09:25.356Z,99.90
2019-02-16T00:11:56.526Z,99.90
2019-02-16T00:14:27.607Z,99.90
2019-02-16T00:16:58.646Z,99.90
2019-02-16T00:19:29.714Z,99.90
2019-02-16T00:22:00.880Z,99.90
2019-02-16T00:24:31.939Z,99.90
2019-02-16T00:27:03.100Z,99.90
2019-02-16T00:29:34.330Z,99.90
2019-02-16T00:32:05.697Z,99.90
2019-02-16T00:34:36.814Z,99.90
2019-02-16T00:37:07.938Z,99.90
2019-02-16T00:39:39.142Z,99.90
2019-02-16T00:42:10.723Z,99.90
2019-02-16T00:44:42.115Z,99.90
2019-02-16T00:47:13.131Z,99.90
2019-02-16T00:49:44.316Z,99.90
2019-02-16T00:52:15.806Z,99.90
2019-02-16T00:54:46.994Z,99.90
2019-02-16T00:57:18.142Z,99.90
2019-02-16T00:59:49.545Z,99.90
2019-02-16T01:02:20.971Z,99.90
2019-02-16T01:04:52.087Z,99.90
2019-02-16T01:07:23.256Z,99.90
2019-02-16T01:09:54.395Z,99.90
2019-02-16T01:12:25.560Z,99.90
2019-02-16T01:14:57.425Z,99.90
2019-02-16T01:17:28.595Z,99.90
2019-02-16T01:19:59.802Z,99.90
2019-02-16T01:22:30.987Z,99.90
2019-02-16T01:25:02.105Z,99.90
2019-02-16T01:27:33.505Z,99.90
2019-02-16T01:30:05.430Z,99.90
2019-02-16T01:32:36.813Z,99.90
2019-02-16T01:35:09.135Z,99.90
2019-02-16T01:37:40.399Z,99.90
2019-02-16T01:40:12.231Z,99.90
2019-02-16T01:42:43.407Z,99.90
2019-02-16T01:45:14.684Z,99.90
2019-02-16T01:47:45.772Z,99.90
2019-02-16T01:50:16.970Z,99.90
2019-02-16T01:52:48.145Z,99.90
2019-02-16T01:55:19.461Z,99.90
2019-02-16T01:57:50.866Z,99.90
2019-02-16T02:00:22.054Z,99.90
2019-02-16T02:02:53.151Z,99.90
2019-02-16T02:05:25.427Z,99.90
2019-02-16T02:07:56.449Z,99.90
2019-02-16T02:10:27.884Z,99.90
2019-02-16T02:12:58.918Z,99.90
2019-02-16T02:15:30.187Z,99.90
2019-02-16T02:18:01.674Z,99.90
2019-02-16T02:20:32.802Z,99.90
2019-02-16T02:23:04.263Z,99.90
2019-02-16T02:25:36.840Z,99.90
2019-02-16T02:28:08.032Z,99.90
2019-02-16T02:30:39.535Z,99.90
2019-02-16T02:33:10.785Z,99.90
2019-02-16T02:35:42.067Z,99.90
2019-02-16T02:38:13.480Z,99.90
2019-02-16T02:40:44.594Z,99.90
2019-02-16T02:43:16.068Z,99.90
2019-02-16T02:45:48.233Z,99.90
2019-02-16T02:48:20.100Z,99.90
2019-02-16T02:50:51.153Z,99.90
2019-02-16T02:53:30.678Z,99.90
2019-02-16T02:55:55.546Z,99.90
2019-02-16T02:58:26.721Z,99.90
2019-02-16T03:00:58.272Z,99.90
2019-02-16T03:03:29.387Z,99.90
2019-02-16T03:06:02.400Z,99.90
2019-02-16T03:08:33.578Z,99.90
2019-02-16T03:11:04.731Z,99.90
2019-02-16T03:13:35.906Z,99.90
2019-02-16T03:16:07.258Z,99.90
2019-02-16T03:18:38.348Z,99.90
2019-02-16T03:21:09.576Z,99.90
2019-02-16T03:23:41.129Z,99.90
2019-02-16T03:26:52.982Z,99.90
2019-02-16T03:29:42.587Z,99.90
2019-02-16T03:32:55.374Z,99.90
2019-02-16T03:36:32.818Z,99.90
2019-02-16T03:39:21.587Z,99.90
2019-02-16T03:41:52.866Z,99.90
2019-02-16T03:44:23.998Z,99.90
2019-02-16T03:46:55.130Z,99.90
2019-02-16T03:49:26.315Z,99.90
2019-02-16T03:51:57.500Z,99.90
2019-02-16T03:54:28.661Z,99.90
2019-02-16T03:56:59.710Z,99.90
2019-02-16T03:59:30.959Z,99.90
2019-02-16T04:02:02.447Z,99.90
2019-02-16T04:04:33.742Z,99.90
2019-02-16T04:07:04.997Z,99.90
2019-02-16T04:09:36.157Z,99.90
2019-02-16T04:12:07.637Z,99.90
2019-02-16T04:14:39.090Z,99.90
2019-02-16T04:17:10.303Z,99.90
2019-02-16T04:19:41.743Z,99.90
2019-02-16T04:22:23.694Z,99.90
2019-02-16T04:24:46.025Z,99.90
2019-02-16T04:27:17.236Z,99.90
2019-02-16T04:29:48.331Z,99.90
2019-02-16T04:32:19.566Z,99.90
2019-02-16T04:34:50.762Z,99.90
2019-02-16T04:37:21.891Z,99.90
2019-02-16T04:39:53.053Z,99.90
2019-02-16T04:42:24.331Z,99.90
2019-02-16T04:44:55.522Z,99.90
2019-02-16T04:47:27.438Z,99.90
2019-02-16T04:49:58.702Z,99.90
2019-02-16T04:52:34.941Z,99.90
2019-02-16T04:55:03.291Z,99.90
2019-02-16T04:57:34.773Z,99.90
2019-02-16T05:00:06.537Z,99.90
2019-02-16T05:02:38.960Z,99.90
2019-02-16T05:05:10.474Z,99.90
2019-02-16T05:07:41.601Z,99.90
2019-02-16T05:10:13.383Z,99.90
2019-02-16T05:12:44.535Z,99.90
2019-02-16T05:15:15.783Z,99.90
2019-02-16T05:17:47.158Z,99.90
2019-02-16T05:20:18.165Z,99.90
2019-02-16T05:22:49.349Z,99.90
2019-02-16T05:25:20.424Z,99.90
2019-02-16T05:27:51.885Z,99.90
2019-02-16T05:30:23.424Z,99.90
2019-02-16T05:32:54.819Z,99.90
2019-02-16T05:35:25.994Z,99.90
2019-02-16T05:37:57.106Z,99.90
2019-02-16T05:40:28.267Z,99.90
2019-02-16T05:42:59.561Z,99.90
2019-02-16T05:45:30.859Z,99.90
2019-02-16T05:48:02.054Z,99.90
2019-02-16T05:50:33.592Z,99.90
2019-02-16T05:53:04.989Z,99.90
2019-02-16T05:55:36.023Z,99.90
2019-02-16T05:58:07.518Z,99.90
2019-02-16T06:00:38.571Z,99.90
2019-02-16T06:03:10.029Z,99.90
2019-02-16T06:05:41.134Z,99.90
2019-02-16T06:08:12.607Z,99.90
2019-02-16T06:10:43.697Z,99.90
2019-02-16T06:13:14.913Z,99.90
2019-02-16T06:15:46.446Z,99.90
2019-02-16T06:18:17.669Z,99.90
2019-02-16T06:20:48.840Z,99.90
2019-02-16T06:23:20.034Z,99.90
2019-02-16T06:25:51.127Z,99.90
2019-02-16T06:28:22.250Z,99.90
2019-02-16T06:30:53.347Z,99.90
2019-02-16T06:33:24.758Z,99.90
2019-02-16T06:36:02.482Z,99.90
2019-02-16T06:38:33.777Z,99.90
2019-02-16T06:41:05.231Z,99.90
2019-02-16T06:43:36.551Z,99.90
2019-02-16T06:46:07.942Z,99.90
2019-02-16T06:48:39.397Z,99.90
2019-02-16T06:51:10.574Z,99.90
2019-02-16T06:53:42.094Z,99.90
2019-02-16T06:56:27.466Z,99.90
2019-02-16T06:58:58.951Z,99.90
2019-02-16T07:01:30.331Z,99.90
2019-02-16T07:04:02.946Z,99.90
2019-02-16T07:06:33.988Z,99.90
2019-02-16T07:09:06.370Z,99.90
2019-02-16T07:11:37.531Z,99.90
2019-02-16T07:14:08.668Z,99.90
2019-02-16T07:16:54.563Z,99.90
2019-02-16T07:19:47.868Z,99.90
2019-02-16T07:22:19.083Z,99.90
2019-02-16T07:24:50.303Z,99.90
2019-02-16T07:27:21.495Z,99.90
2019-02-16T07:29:52.707Z,99.90
2019-02-16T07:32:24.631Z,99.90
2019-02-16T07:34:56.393Z,99.90
2019-02-16T07:37:27.463Z,99.90
2019-02-16T07:39:59.952Z,99.90
2019-02-16T07:42:49.286Z,99.90
2019-02-16T07:45:38.031Z,99.90
2019-02-16T07:48:33.807Z,99.90
2019-02-16T07:51:17.154Z,99.90
2019-02-16T07:53:56.536Z,99.90
2019-02-16T07:56:46.742Z,99.90
2019-02-16T07:59:40.130Z,99.90
2019-02-16T08:02:17.358Z,99.90
2019-02-16T08:05:06.472Z,99.90
2019-02-16T08:08:01.134Z,99.90
2019-02-16T08:10:51.739Z,99.90
2019-02-16T08:13:33.149Z,99.90
2019-02-16T08:16:13.817Z,99.90
2019-02-16T08:18:54.816Z,99.90
2019-02-16T08:21:44.441Z,99.90
2019-02-16T08:24:38.710Z,99.90
2019-02-16T08:27:28.862Z,99.90
2019-02-16T08:30:07.043Z,99.90
2019-02-16T08:32:49.826Z,99.90
2019-02-16T08:35:36.870Z,99.90
2019-02-16T08:38:25.973Z,99.90
2019-02-16T08:41:28.289Z,99.90
2019-02-16T08:44:10.233Z,99.90
2019-02-16T08:47:00.277Z,99.90
2019-02-16T08:49:47.127Z,99.90
2019-02-16T08:52:34.580Z,99.90
2019-02-16T08:55:15.714Z,99.90
2019-02-16T08:58:04.024Z,99.90
2019-02-16T09:00:48.629Z,99.90
2019-02-16T09:03:40.215Z,99.90
2019-02-16T09:06:29.325Z,99.90
2019-02-16T09:09:16.310Z,99.90
2019-02-16T09:11:58.416Z,99.90
2019-02-16T09:14:53.431Z,99.90
2019-02-16T09:17:46.526Z,99.90
2019-02-16T09:20:37.224Z,99.90
2019-02-16T09:23:21.294Z,99.90
2019-02-16T09:26:14.421Z,99.90
2019-02-16T09:29:10.682Z,99.90
2019-02-16T09:31:59.351Z,99.90
2019-02-16T09:35:01.627Z,99.90
2019-02-16T09:37:50.728Z,99.90
2019-02-16T09:40:38.657Z,99.90
2019-02-16T09:43:14.943Z,99.90
2019-02-16T09:46:08.194Z,99.90
2019-02-16T09:49:01.042Z,99.90
2019-02-16T09:52:00.027Z,99.90
2019-02-16T09:54:50.349Z,99.90
2019-02-16T09:57:46.430Z,99.90
2019-02-16T10:00:48.874Z,99.90
2019-02-16T10:03:34.964Z,99.90
2019-02-16T10:06:43.494Z,99.90
2019-02-16T10:09:36.694Z,99.90
2019-02-16T10:12:29.856Z,99.90
2019-02-16T10:15:12.414Z,99.90
2019-02-16T10:18:08.139Z,99.90
2019-02-16T10:20:51.110Z,99.90
2019-02-16T10:23:50.767Z,99.90
2019-02-16T10:26:37.934Z,99.90
2019-02-16T10:29:23.776Z,99.90
2019-02-16T10:32:12.811Z,99.90
2019-02-16T10:35:00.317Z,99.90
2019-02-16T10:37:56.560Z,99.90
2019-02-16T10:41:05.151Z,99.40
2019-02-16T10:43:48.590Z,98.70
2019-02-16T10:46:57.215Z,99.10
2019-02-16T10:49:56.507Z,99.20
2019-02-16T10:52:35.785Z,99.20
2019-02-16T10:55:25.864Z,98.10
2019-02-16T10:58:15.264Z,97.30
2019-02-16T11:01:04.399Z,98.00
2019-02-16T11:03:58.008Z,97.70
2019-02-16T11:06:48.204Z,97.00
2019-02-16T11:09:37.492Z,96.70
2019-02-16T11:12:36.890Z,96.20
2019-02-16T11:15:40.648Z,95.50
2019-02-16T11:18:33.761Z,95.60
2019-02-16T11:21:19.434Z,94.50
2019-02-16T11:24:02.477Z,94.90
2019-02-16T11:26:44.562Z,94.30
2019-02-16T11:29:32.748Z,93.30
2019-02-16T11:32:24.145Z,92.30
2019-02-16T11:35:17.160Z,92.60
2019-02-16T11:38:19.548Z,92.10
2019-02-16T11:41:18.665Z,91.20
2019-02-16T11:44:16.983Z,89.30
2019-02-16T11:47:10.345Z,88.60
2019-02-16T11:50:03.554Z,85.40
2019-02-16T11:53:02.499Z,83.30
2019-02-16T11:55:51.657Z,82.40
2019-02-16T11:58:35.633Z,78.20
2019-02-16T12:01:26.257Z,77.80
2019-02-16T12:04:02.809Z,75.60
2019-02-16T12:06:37.871Z,72.60
2019-02-16T12:09:24.617Z,71.50
2019-02-16T12:12:11.326Z,68.40
2019-02-16T12:15:04.314Z,68.10
2019-02-16T12:17:56.792Z,63.90
2019-02-16T12:20:49.923Z,59.20
2019-02-16T12:23:55.353Z,57.00
2019-02-16T12:26:44.104Z,55.00
2019-02-16T12:29:49.185Z,53.10
2019-02-16T12:32:30.783Z,51.30
2019-02-16T12:35:21.437Z,49.50
2019-02-16T12:38:13.800Z,48.60
2019-02-16T12:41:08.523Z,48.60
2019-02-16T12:44:02.049Z,47.30
2019-02-16T12:46:45.488Z,48.10
2019-02-16T12:49:38.912Z,46.50
2019-02-16T12:52:33.046Z,44.70
2019-02-16T12:55:14.956Z,44.10
2019-02-16T12:57:53.577Z,43.70
2019-02-16T13:00:43.672Z,43.60
2019-02-16T13:03:36.927Z,42.50
2019-02-16T13:06:20.887Z,42.00
2019-02-16T13:09:02.938Z,42.50
2019-02-16T13:11:53.138Z,42.00
2019-02-16T13:14:32.115Z,41.80
2019-02-16T13:17:20.947Z,41.60
2019-02-16T13:20:18.740Z,41.20
2019-02-16T13:23:11.977Z,41.00
2019-02-16T13:26:20.461Z,40.80
2019-02-16T13:29:06.539Z,41.00
2019-02-16T13:31:45.944Z,40.00
2019-02-16T13:34:23.704Z,40.80
2019-02-16T13:37:13.115Z,40.80
2019-02-16T13:39:56.256Z,41.00
2019-02-16T13:42:45.106Z,40.90
2019-02-16T13:45:32.965Z,41.20
2019-02-16T13:48:12.434Z,41.30
2019-02-16T13:51:11.877Z,40.90
2019-02-16T13:53:58.476Z,41.00
2019-02-16T13:57:04.059Z,41.00
2019-02-16T13:59:45.336Z,41.40
2019-02-16T14:02:53.746Z,41.20
2019-02-16T14:05:42.886Z,40.70
2019-02-16T14:08:23.818Z,40.90
2019-02-16T14:11:32.019Z,41.30
2019-02-16T14:14:10.566Z,41.50
2019-02-16T14:17:01.094Z,41.30
2019-02-16T14:19:32.215Z,41.60
2019-02-16T14:22:03.313Z,42.10
2019-02-16T14:24:46.828Z,42.40
2019-02-16T14:27:17.990Z,42.90
2019-02-16T14:29:49.195Z,42.60
2019-02-16T14:32:20.429Z,43.30
2019-02-16T14:34:51.989Z,43.70
2019-02-16T14:37:48.282Z,44.90
2019-02-16T14:40:20.428Z,45.80
2019-02-16T14:42:51.809Z,47.40
2019-02-16T14:45:22.910Z,48.00
2019-02-16T14:47:54.142Z,49.20
2019-02-16T14:50:25.254Z,49.00
2019-02-16T14:52:56.815Z,48.20
2019-02-16T14:55:28.244Z,47.90
2019-02-16T14:57:59.408Z,47.90
2019-02-16T15:00:30.585Z,48.30
2019-02-16T15:03:01.799Z,48.80
2019-02-16T15:05:32.912Z,48.70
2019-02-16T15:08:04.625Z,48.50
2019-02-16T15:10:35.756Z,49.00
2019-02-16T15:13:06.986Z,49.10
2019-02-16T15:15:38.161Z,49.20
2019-02-16T15:18:09.524Z,49.20
2019-02-16T15:20:40.998Z,49.40
2019-02-16T15:23:12.124Z,49.30
2019-02-16T15:25:44.264Z,49.20
2019-02-16T15:28:15.954Z,49.20
2019-02-16T15:30:47.050Z,49.40
2019-02-16T15:33:19.275Z,50.00
2019-02-16T15:35:50.389Z,50.50
2019-02-16T15:38:21.452Z,51.10
2019-02-16T15:40:52.832Z,51.80
2019-02-16T15:43:24.646Z,52.80
2019-02-16T15:46:02.366Z,52.60
2019-02-16T15:48:37.869Z,52.00
2019-02-16T15:51:24.972Z,52.20
2019-02-16T15:54:02.274Z,51.80
2019-02-16T15:56:44.349Z,52.70
2019-02-16T15:59:39.390Z,53.20
2019-02-16T16:02:30.535Z,54.10
2019-02-16T16:05:18.230Z,55.20
2019-02-16T16:08:21.082Z,56.00
2019-02-16T16:11:24.091Z,56.10
2019-02-16T16:14:23.768Z,55.70
2019-02-16T16:17:28.633Z,55.40
2019-02-16T16:20:38.371Z,55.70
2019-02-16T16:23:54.830Z,55.40
2019-02-16T16:27:09.048Z,55.70
2019-02-16T16:30:11.937Z,56.50
2019-02-16T16:33:18.807Z,58.10
2019-02-16T16:36:39.107Z,58.60
2019-02-16T16:40:09.677Z,60.00
2019-02-16T16:43:32.502Z,62.20
2019-02-16T16:46:39.279Z,65.00
2019-02-16T16:49:46.171Z,67.40
2019-02-16T16:52:54.659Z,69.40
2019-02-16T16:55:48.459Z,70.90
2019-02-16T16:58:49.708Z,73.30
2019-02-16T17:01:43.579Z,76.20
2019-02-16T17:04:48.949Z,79.00
2019-02-16T17:08:03.907Z,82.20
2019-02-16T17:11:11.282Z,84.70
2019-02-16T17:14:04.149Z,86.10
2019-02-16T17:17:05.405Z,88.70
2019-02-16T17:20:19.561Z,90.20
2019-02-16T17:23:19.888Z,91.20
2019-02-16T17:26:18.589Z,92.30
2019-02-16T17:29:39.595Z,92.90
2019-02-16T17:33:07.048Z,93.40
2019-02-16T17:36:03.461Z,93.50
2019-02-16T17:39:42.318Z,94.00
2019-02-16T17:43:01.083Z,94.80
2019-02-16T17:46:41.953Z,95.00
2019-02-16T17:49:58.974Z,95.70
2019-02-16T17:53:05.420Z,96.10
2019-02-16T17:55:54.825Z,96.80
2019-02-16T17:59:06.313Z,96.40
2019-02-16T18:02:44.630Z,97.00
2019-02-16T18:05:48.224Z,97.20
2019-02-16T18:09:38.842Z,96.70
2019-02-16T18:12:08.642Z,96.80
2019-02-16T18:15:34.577Z,96.60
2019-02-16T18:18:43.713Z,96.20
2019-02-16T18:22:08.925Z,96.10
2019-02-16T18:25:32.259Z,96.50
2019-02-16T18:28:39.788Z,96.50
2019-02-16T18:31:49.011Z,97.00
2019-02-16T18:34:57.399Z,97.30
2019-02-16T18:38:10.474Z,97.70
2019-02-16T18:41:12.087Z,98.00
2019-02-16T18:47:44.915Z,98.80
2019-02-16T18:50:57.457Z,98.90
2019-02-16T18:54:01.384Z,98.90
2019-02-16T18:57:06.850Z,99.30
2019-02-16T19:00:21.584Z,99.50
2019-02-16T19:03:21.165Z,99.50
2019-02-16T19:06:39.247Z,99.50
2019-02-16T19:09:55.443Z,99.80
2019-02-16T19:12:54.809Z,99.90
2019-02-16T19:16:23.309Z,99.90
2019-02-16T19:19:27.803Z,99.90
2019-02-16T19:22:31.374Z,99.90
2019-02-16T19:25:34.191Z,99.90
2019-02-16T19:28:33.956Z,99.90
2019-02-16T19:32:04.311Z,99.90
2019-02-16T19:35:22.660Z,99.90
2019-02-16T19:38:21.044Z,99.90
2019-02-16T19:41:38.598Z,99.90
2019-02-16T19:44:58.791Z,99.90
2019-02-16T19:47:57.768Z,99.90
2019-02-16T19:51:03.726Z,99.90
2019-02-16T19:54:21.583Z,99.90
2019-02-16T19:57:32.048Z,99.90
2019-02-16T20:00:42.165Z,99.90
2019-02-16T20:03:40.178Z,99.90
2019-02-16T20:06:50.297Z,99.90
2019-02-16T20:09:50.241Z,99.90
2019-02-16T20:12:59.584Z,99.90
2019-02-16T20:16:03.103Z,99.90
2019-02-16T20:19:10.895Z,99.90
2019-02-16T20:22:09.749Z,99.90
2019-02-16T20:25:27.933Z,99.90
2019-02-16T20:28:22.014Z,99.90
2019-02-16T20:31:30.531Z,99.90
2019-02-16T20:34:39.059Z,99.90
2019-02-16T20:38:04.224Z,99.90
2019-02-16T20:41:19.541Z,99.90
2019-02-16T20:44:27.449Z,99.90
2019-02-16T20:47:27.778Z,99.90
2019-02-16T20:50:50.244Z,99.90
2019-02-16T20:53:38.470Z,99.90
2019-02-16T20:56:28.082Z,99.90
2019-02-16T20:59:27.860Z,99.90
2019-02-16T21:02:15.112Z,99.90
2019-02-16T21:05:13.601Z,99.90
2019-02-16T21:08:04.230Z,99.90
2019-02-16T21:10:53.818Z,99.90
2019-02-16T21:13:42.905Z,99.90
2019-02-16T21:16:33.072Z,99.90
2019-02-16T21:19:17.763Z,99.90
2019-02-16T21:21:59.135Z,99.90
2019-02-16T21:24:48.096Z,99.90
2019-02-16T21:27:39.209Z,99.90
2019-02-16T21:30:28.574Z,99.90
2019-02-16T21:33:12.212Z,99.90
2019-02-16T21:36:01.932Z,99.90
2019-02-16T21:38:43.495Z,99.90
2019-02-16T21:41:39.644Z,99.90
2019-02-16T21:44:29.281Z,99.90
2019-02-16T21:47:34.878Z,99.90
2019-02-16T21:50:18.568Z,99.90
2019-02-16T21:53:07.183Z,99.90
2019-02-16T21:55:55.920Z,99.90
2019-02-16T21:58:45.086Z,99.90
2019-02-16T22:01:44.597Z,99.90
2019-02-16T22:04:38.467Z,99.90
2019-02-16T22:07:31.619Z,99.90
2019-02-16T22:10:20.336Z,99.90
2019-02-16T22:13:04.369Z,99.90
2019-02-16T22:15:37.034Z,99.90
2019-02-16T22:18:08.212Z,99.90
2019-02-16T22:20:39.421Z,99.90
2019-02-16T22:23:10.581Z,99.90
2019-02-16T22:25:41.789Z,99.90
2019-02-16T22:28:18.631Z,99.90
2019-02-16T22:30:46.134Z,99.90
2019-02-16T22:33:17.308Z,99.90
2019-02-16T22:35:48.523Z,99.90
2019-02-16T22:38:19.794Z,99.90
2019-02-16T22:40:51.196Z,99.90
2019-02-16T22:43:22.377Z,99.90
2019-02-16T22:45:53.574Z,99.90
2019-02-16T22:48:25.319Z,99.90
2019-02-16T22:50:56.631Z,99.90
2019-02-16T22:53:27.672Z,99.90
2019-02-16T22:55:58.845Z,99.90
2019-02-16T22:58:30.078Z,99.90
2019-02-16T23:01:01.903Z,99.90
2019-02-16T23:03:34.781Z,99.90
2019-02-16T23:06:06.033Z,99.90
2019-02-16T23:08:37.214Z,99.90
2019-02-16T23:11:08.439Z,99.90
2019-02-16T23:13:39.759Z,99.90
2019-02-16T23:16:11.024Z,99.90
2019-02-16T23:18:42.539Z,99.90
2019-02-16T23:21:14.398Z,99.90
2019-02-16T23:23:45.945Z,99.90
2019-02-16T23:26:17.038Z,99.90
2019-02-16T23:28:48.188Z,99.90
2019-02-16T23:31:19.686Z,99.90
2019-02-16T23:33:50.738Z,99.90
2019-02-16T23:36:22.206Z,99.90
2019-02-16T23:38:53.320Z,99.90
2019-02-16T23:41:24.392Z,99.90
2019-02-16T23:43:55.516Z,99.90
2019-02-16T23:46:26.648Z,99.90
2019-02-16T23:48:57.780Z,99.90
2019-02-16T23:51:28.890Z,99.90
2019-02-16T23:54:00.379Z,99.90
2019-02-16T23:56:32.240Z,99.90
2019-02-16T23:59:03.368Z,99.90
